createdAt,value
2018-07-20T00:00:24.673Z,83.78
2018-07-20T00:01:24.600Z,84.55
2018-07-20T00:02:24.587Z,84.36
2018-07-20T00:03:24.571Z,84.17
2018-07-20T00:04:24.555Z,85.03
2018-07-20T00:05:24.542Z,84.46
2018-07-20T00:06:24.527Z,84.46
2018-07-20T00:07:24.512Z,84.75
2018-07-20T00:08:24.496Z,84.46
2018-07-20T00:09:24.482Z,84.75
2018-07-20T00:10:24.468Z,85.52
2018-07-20T00:11:24.453Z,85.42
2018-07-20T00:12:24.437Z,85.57
2018-07-20T00:13:24.421Z,85.81
2018-07-20T00:14:24.407Z,86.82
2018-07-20T00:15:24.393Z,86.82
2018-07-20T00:16:24.376Z,86.54
2018-07-20T00:17:24.363Z,86.73
2018-07-20T00:18:24.347Z,86.54
2018-07-20T00:19:24.334Z,87.79
2018-07-20T00:20:24.319Z,87.40
2018-07-20T00:21:24.303Z,86.92
2018-07-20T00:22:24.287Z,87.70
2018-07-20T00:23:24.273Z,87.60
2018-07-20T00:24:24.257Z,87.79
2018-07-20T00:25:24.242Z,89.00
2018-07-20T00:26:24.230Z,88.71
2018-07-20T00:27:24.214Z,88.81
2018-07-20T00:28:24.198Z,88.65
2018-07-20T00:29:24.185Z,88.90
2018-07-20T00:30:24.201Z,88.71
2018-07-20T00:31:24.154Z,88.71
2018-07-20T00:32:24.139Z,88.90
2018-07-20T00:33:24.122Z,89.04
2018-07-20T00:34:24.109Z,88.32
2018-07-20T00:35:24.096Z,87.84
2018-07-20T00:36:24.078Z,89.00
2018-07-20T00:37:24.062Z,88.23
2018-07-20T00:38:24.049Z,88.32
2018-07-20T00:39:24.034Z,88.71
2018-07-20T00:40:24.017Z,89.09
2018-07-20T00:41:24.005Z,89.09
2018-07-20T00:42:23.991Z,87.94
2018-07-20T00:43:23.973Z,89.00
2018-07-20T00:44:23.957Z,89.48
2018-07-20T00:45:23.943Z,89.67
2018-07-20T00:46:23.928Z,90.16
2018-07-20T00:47:23.913Z,89.77
2018-07-20T00:48:23.897Z,89.72
2018-07-20T00:49:23.882Z,89.58
2018-07-20T00:50:24.618Z,89.72
2018-07-20T00:51:23.874Z,89.24
2018-07-20T00:52:23.836Z,89.63
2018-07-20T00:53:23.822Z,88.85
2018-07-20T00:54:23.806Z,89.05
2018-07-20T00:55:23.791Z,89.00
2018-07-20T00:56:23.775Z,88.47
2018-07-20T00:57:23.761Z,88.18
2018-07-20T00:58:23.745Z,88.76
2018-07-20T00:59:23.732Z,88.18
2018-07-20T01:00:23.714Z,87.90
2018-07-20T01:01:23.698Z,87.84
2018-07-20T01:02:23.686Z,87.80
2018-07-20T01:03:23.669Z,87.26
2018-07-20T01:04:23.653Z,88.28
2018-07-20T01:05:23.667Z,87.46
2018-07-20T01:06:23.624Z,87.84
2018-07-20T01:07:23.608Z,87.60
2018-07-20T01:08:23.596Z,87.51
2018-07-20T01:09:23.576Z,88.04
2018-07-20T01:10:23.562Z,88.57
2018-07-20T01:11:23.548Z,88.85
2018-07-20T01:12:23.530Z,89.05
2018-07-20T01:13:23.515Z,88.95
2018-07-20T01:14:23.500Z,89.34
2018-07-20T01:15:23.490Z,89.15
2018-07-20T01:16:23.472Z,89.24
2018-07-20T01:17:23.454Z,89.43
2018-07-20T01:18:23.439Z,88.95
2018-07-20T01:19:23.425Z,89.05
2018-07-20T01:20:23.407Z,89.34
2018-07-20T01:21:23.394Z,89.92
2018-07-20T01:22:23.379Z,89.34
2018-07-20T01:23:23.362Z,89.72
2018-07-20T01:24:23.346Z,89.34
2018-07-20T01:25:23.331Z,90.11
2018-07-20T01:26:24.066Z,88.57
2018-07-20T01:27:23.300Z,88.76
2018-07-20T01:28:23.284Z,89.34
2018-07-20T01:29:23.269Z,88.28
2018-07-20T01:30:23.254Z,88.57
2018-07-20T01:31:23.243Z,87.90
2018-07-20T01:32:23.223Z,87.90
2018-07-20T01:33:23.208Z,88.28
2018-07-20T01:34:23.193Z,89.15
2018-07-20T01:35:23.178Z,88.95
2018-07-20T01:36:23.162Z,87.70
2018-07-20T01:37:23.147Z,87.41
2018-07-20T01:38:23.130Z,86.83
2018-07-20T01:39:23.116Z,87.46
2018-07-20T01:40:23.099Z,87.32
2018-07-20T01:41:23.084Z,87.03
2018-07-20T01:42:23.070Z,86.93
2018-07-20T01:43:23.054Z,87.70
2018-07-20T01:44:23.038Z,87.51
2018-07-20T01:45:23.023Z,87.90
2018-07-20T01:46:23.008Z,86.55
2018-07-20T01:47:25.244Z,86.93
2018-07-20T01:48:22.976Z,88.09
2018-07-20T01:49:22.961Z,87.22
2018-07-20T01:50:22.944Z,86.45
2018-07-20T01:51:22.930Z,86.16
2018-07-20T01:52:22.918Z,87.22
2018-07-20T01:53:22.899Z,88.18
2018-07-20T01:54:22.884Z,87.56
2018-07-20T01:55:22.868Z,87.66
2018-07-20T01:56:22.851Z,87.76
2018-07-20T01:57:22.836Z,88.33
2018-07-20T01:58:22.822Z,89.10
2018-07-20T01:59:22.806Z,88.71
2018-07-20T02:00:22.789Z,88.71
2018-07-20T02:01:22.774Z,89.68
2018-07-20T02:02:22.759Z,89.78
2018-07-20T02:03:22.744Z,90.35
2018-07-20T02:04:22.727Z,90.79
2018-07-20T02:05:22.712Z,91.27
2018-07-20T02:06:22.697Z,91.85
2018-07-20T02:07:22.680Z,91.94
2018-07-20T02:08:22.663Z,92.04
2018-07-20T02:09:22.649Z,91.90
2018-07-20T02:10:22.645Z,91.56
2018-07-20T02:11:22.617Z,91.75
2018-07-20T02:12:22.602Z,91.71
2018-07-20T02:13:22.586Z,91.52
2018-07-20T02:14:22.572Z,92.38
2018-07-20T02:15:22.554Z,92.09
2018-07-20T02:16:22.539Z,91.52
2018-07-20T02:17:22.523Z,91.80
2018-07-20T02:18:22.507Z,92.09
2018-07-20T02:19:22.491Z,92.09
2018-07-20T02:20:22.475Z,91.99
2018-07-20T02:21:22.464Z,91.52
2018-07-20T02:22:22.446Z,91.13
2018-07-20T02:23:22.428Z,91.22
2018-07-20T02:24:22.413Z,91.32
2018-07-20T02:25:22.397Z,91.52
2018-07-20T02:26:22.382Z,91.42
2018-07-20T02:27:22.371Z,91.32
2018-07-20T02:28:22.349Z,91.42
2018-07-20T02:29:22.336Z,91.22
2018-07-20T02:30:22.320Z,91.22
2018-07-20T02:31:22.303Z,91.22
2018-07-20T02:32:22.284Z,91.32
2018-07-20T02:33:22.269Z,91.80
2018-07-20T02:34:22.253Z,91.61
2018-07-20T02:35:22.239Z,91.61
2018-07-20T02:36:22.220Z,92.76
2018-07-20T02:37:22.209Z,92.76
2018-07-20T02:38:22.188Z,92.96
2018-07-20T02:39:22.177Z,93.73
2018-07-20T02:40:22.157Z,93.19
2018-07-20T02:41:22.140Z,93.68
2018-07-20T02:42:22.125Z,93.29
2018-07-20T02:43:22.109Z,93.58
2018-07-20T02:44:22.092Z,93.77
2018-07-20T02:45:22.076Z,93.29
2018-07-20T02:46:22.059Z,93.68
2018-07-20T02:47:22.043Z,94.06
2018-07-20T02:48:22.026Z,94.83
2018-07-20T02:49:22.010Z,94.35
2018-07-20T02:50:21.994Z,94.83
2018-07-20T02:51:23.480Z,94.93
2018-07-20T02:52:21.964Z,95.40
2018-07-20T02:53:21.945Z,94.31
2018-07-20T02:54:21.928Z,95.45
2018-07-20T02:55:21.913Z,95.36
2018-07-20T02:56:21.894Z,95.12
2018-07-20T02:57:21.880Z,95.65
2018-07-20T02:58:21.862Z,95.21
2018-07-20T02:59:21.846Z,95.65
2018-07-20T03:00:21.829Z,96.27
2018-07-20T03:01:21.811Z,95.75
2018-07-20T03:02:21.796Z,96.03
2018-07-20T03:03:21.779Z,95.75
2018-07-20T03:04:21.763Z,95.55
2018-07-20T03:05:21.746Z,95.75
2018-07-20T03:06:21.728Z,95.89
2018-07-20T03:07:21.714Z,95.75
2018-07-20T03:08:21.696Z,96.22
2018-07-20T03:09:21.679Z,95.84
2018-07-20T03:10:21.662Z,96.80
2018-07-20T03:11:21.652Z,96.61
2018-07-20T03:12:21.629Z,96.89
2018-07-20T03:13:21.613Z,95.84
2018-07-20T03:14:21.596Z,95.65
2018-07-20T03:15:21.583Z,95.26
2018-07-20T03:16:21.562Z,95.17
2018-07-20T03:17:21.547Z,94.59
2018-07-20T03:18:21.528Z,94.88
2018-07-20T03:19:21.512Z,94.11
2018-07-20T03:20:21.493Z,94.26
2018-07-20T03:21:21.477Z,94.26
2018-07-20T03:22:21.465Z,93.96
2018-07-20T03:23:21.445Z,94.35
2018-07-20T03:24:21.426Z,93.39
2018-07-20T03:25:21.415Z,93.68
2018-07-20T03:26:21.392Z,93.77
2018-07-20T03:27:21.375Z,93.58
2018-07-20T03:28:21.358Z,93.58
2018-07-20T03:29:21.340Z,93.73
2018-07-20T03:30:21.325Z,94.01
2018-07-20T03:31:21.308Z,93.54
2018-07-20T03:32:21.291Z,93.96
2018-07-20T03:33:21.273Z,93.77
2018-07-20T03:34:21.262Z,93.68
2018-07-20T03:35:21.241Z,93.58
2018-07-20T03:36:21.223Z,93.92
2018-07-20T03:37:21.207Z,93.92
2018-07-20T03:38:21.189Z,93.87
2018-07-20T03:39:21.173Z,93.63
2018-07-20T03:40:21.154Z,93.87
2018-07-20T03:41:21.137Z,93.92
2018-07-20T03:42:21.123Z,94.11
2018-07-20T03:43:21.105Z,94.01
2018-07-20T03:44:21.086Z,93.82
2018-07-20T03:45:21.070Z,93.68
2018-07-20T03:46:21.054Z,94.49
2018-07-20T03:47:21.036Z,94.21
2018-07-20T03:48:21.019Z,94.73
2018-07-20T03:49:21.002Z,94.31
2018-07-20T03:50:20.986Z,94.11
2018-07-20T03:51:20.969Z,94.83
2018-07-20T03:52:20.954Z,95.36
2018-07-20T03:53:20.935Z,94.59
2018-07-20T03:54:20.918Z,94.59
2018-07-20T03:55:20.900Z,95.45
2018-07-20T03:56:20.886Z,95.45
2018-07-20T03:57:22.369Z,95.75
2018-07-20T03:58:20.849Z,95.36
2018-07-20T03:59:20.834Z,95.45
2018-07-20T04:00:20.815Z,96.32
2018-07-20T04:01:20.801Z,96.22
2018-07-20T04:02:20.799Z,96.03
2018-07-20T04:03:20.765Z,96.03
2018-07-20T04:04:20.747Z,95.65
2018-07-20T04:05:20.731Z,96.13
2018-07-20T04:06:20.714Z,95.55
2018-07-20T04:07:20.698Z,94.78
2018-07-20T04:08:20.680Z,94.11
2018-07-20T04:09:20.664Z,94.40
2018-07-20T04:10:20.725Z,94.59
2018-07-20T04:11:20.630Z,94.98
2018-07-20T04:12:20.613Z,94.78
2018-07-20T04:13:20.595Z,94.98
2018-07-20T04:14:20.579Z,94.59
2018-07-20T04:15:20.566Z,94.78
2018-07-20T04:16:20.544Z,95.17
2018-07-20T04:17:20.527Z,94.98
2018-07-20T04:18:20.511Z,94.88
2018-07-20T04:19:20.494Z,94.69
2018-07-20T04:20:20.476Z,94.31
2018-07-20T04:21:20.459Z,94.21
2018-07-20T04:22:20.442Z,93.92
2018-07-20T04:23:20.429Z,93.82
2018-07-20T04:24:21.158Z,93.92
2018-07-20T04:25:20.391Z,94.40
2018-07-20T04:26:20.375Z,94.21
2018-07-20T04:27:20.357Z,94.31
2018-07-20T04:28:20.340Z,94.59
2018-07-20T04:29:20.327Z,94.40
2018-07-20T04:30:20.306Z,94.40
2018-07-20T04:31:20.290Z,95.55
2018-07-20T04:32:20.272Z,94.40
2018-07-20T04:33:20.255Z,94.78
2018-07-20T04:34:20.239Z,95.07
2018-07-20T04:35:20.222Z,94.78
2018-07-20T04:36:20.299Z,94.40
2018-07-20T04:37:20.187Z,93.92
2018-07-20T04:38:20.169Z,94.78
2018-07-20T04:39:20.155Z,94.40
2018-07-20T04:40:20.887Z,94.16
2018-07-20T04:41:20.119Z,94.16
2018-07-20T04:42:20.103Z,93.77
2018-07-20T04:43:20.088Z,93.87
2018-07-20T04:44:20.070Z,95.03
2018-07-20T04:45:20.052Z,95.60
2018-07-20T04:46:20.035Z,95.12
2018-07-20T04:47:20.018Z,95.21
2018-07-20T04:48:20.000Z,94.06
2018-07-20T04:49:20.003Z,93.58
2018-07-20T04:50:19.967Z,93.96
2018-07-20T04:51:19.950Z,94.16
2018-07-20T04:52:19.936Z,94.16
2018-07-20T04:53:19.917Z,94.64
2018-07-20T04:54:19.900Z,95.12
2018-07-20T04:55:19.886Z,95.03
2018-07-20T04:56:19.870Z,95.50
2018-07-20T04:57:19.850Z,95.12
2018-07-20T04:58:19.835Z,95.50
2018-07-20T04:59:19.817Z,95.60
2018-07-20T05:00:19.850Z,95.79
2018-07-20T05:01:19.784Z,95.79
2018-07-20T05:02:19.768Z,94.64
2018-07-20T05:03:19.750Z,94.35
2018-07-20T05:04:19.733Z,94.98
2018-07-20T05:05:19.718Z,94.68
2018-07-20T05:06:19.702Z,94.59
2018-07-20T05:07:20.435Z,94.88
2018-07-20T05:08:19.667Z,94.68
2018-07-20T05:09:19.652Z,95.75
2018-07-20T05:10:19.635Z,95.94
2018-07-20T05:11:19.646Z,94.49
2018-07-20T05:12:19.601Z,93.73
2018-07-20T05:13:19.585Z,94.64
2018-07-20T05:14:19.568Z,95.40
2018-07-20T05:15:19.552Z,95.89
2018-07-20T05:16:19.535Z,95.70
2018-07-20T05:17:19.520Z,96.75
2018-07-20T05:18:20.255Z,96.27
2018-07-20T05:19:19.487Z,96.47
2018-07-20T05:20:19.471Z,95.31
2018-07-20T05:21:19.463Z,94.64
2018-07-20T05:22:19.438Z,95.70
2018-07-20T05:23:19.423Z,95.79
2018-07-20T05:24:19.408Z,95.60
2018-07-20T05:25:19.390Z,95.89
2018-07-20T05:26:19.372Z,95.94
2018-07-20T05:27:19.357Z,96.51
2018-07-20T05:28:19.340Z,96.89
2018-07-20T05:29:19.324Z,96.61
2018-07-20T05:30:19.308Z,94.49
2018-07-20T05:31:19.295Z,94.40
2018-07-20T05:32:19.275Z,94.59
2018-07-20T05:33:19.260Z,94.30
2018-07-20T05:34:19.245Z,95.07
2018-07-20T05:35:19.229Z,96.12
2018-07-20T05:36:19.212Z,95.98
2018-07-20T05:37:19.199Z,96.08
2018-07-20T05:38:19.182Z,96.37
2018-07-20T05:39:19.166Z,95.60
2018-07-20T05:40:19.149Z,95.79
2018-07-20T05:41:19.133Z,94.54
2018-07-20T05:42:19.116Z,95.12
2018-07-20T05:43:19.101Z,94.54
2018-07-20T05:44:19.085Z,95.21
2018-07-20T05:45:19.070Z,94.73
2018-07-20T05:46:19.053Z,93.38
2018-07-20T05:47:19.043Z,94.82
2018-07-20T05:48:19.028Z,95.31
2018-07-20T05:49:19.008Z,95.02
2018-07-20T05:50:18.990Z,94.73
2018-07-20T05:51:18.976Z,94.73
2018-07-20T05:52:18.960Z,94.44
2018-07-20T05:53:18.964Z,93.38
2018-07-20T05:54:18.929Z,92.61
2018-07-20T05:55:18.914Z,92.27
2018-07-20T05:56:18.900Z,92.08
2018-07-20T05:57:18.881Z,91.69
2018-07-20T05:58:18.866Z,92.18
2018-07-20T05:59:18.851Z,93.52
2018-07-20T06:00:18.834Z,92.37
2018-07-20T06:01:18.820Z,91.60
2018-07-20T06:02:18.809Z,91.69
2018-07-20T06:03:18.788Z,91.31
2018-07-20T06:04:18.772Z,91.41
2018-07-20T06:05:18.758Z,90.34
2018-07-20T06:06:18.742Z,90.64
2018-07-20T06:07:18.726Z,90.97
2018-07-20T06:08:18.710Z,90.92
2018-07-20T06:09:18.697Z,90.48
2018-07-20T06:10:18.681Z,91.26
2018-07-20T06:11:18.665Z,91.45
2018-07-20T06:12:18.652Z,91.93
2018-07-20T06:13:18.634Z,91.64
2018-07-20T06:14:18.624Z,92.32
2018-07-20T06:15:18.604Z,92.03
2018-07-20T06:16:18.588Z,91.36
2018-07-20T06:17:18.572Z,90.83
2018-07-20T06:18:18.558Z,91.83
2018-07-20T06:19:18.542Z,91.16
2018-07-20T06:20:18.525Z,90.88
2018-07-20T06:21:18.511Z,91.36
2018-07-20T06:22:18.496Z,91.55
2018-07-20T06:23:18.482Z,91.93
2018-07-20T06:24:18.466Z,91.16
2018-07-20T06:25:18.450Z,90.68
2018-07-20T06:26:18.436Z,90.20
2018-07-20T06:27:18.420Z,91.16
2018-07-20T06:28:18.405Z,91.83
2018-07-20T06:29:18.389Z,90.30
2018-07-20T06:30:18.375Z,90.78
2018-07-20T06:31:18.359Z,92.61
2018-07-20T06:32:18.343Z,92.22
2018-07-20T06:33:18.328Z,93.38
2018-07-20T06:34:18.313Z,92.85
2018-07-20T06:35:18.299Z,92.03
2018-07-20T06:36:18.283Z,92.36
2018-07-20T06:37:18.271Z,90.15
2018-07-20T06:38:18.253Z,89.57
2018-07-20T06:39:18.237Z,90.58
2018-07-20T06:40:18.224Z,90.24
2018-07-20T06:41:18.210Z,90.24
2018-07-20T06:42:18.195Z,89.62
2018-07-20T06:43:18.177Z,89.67
2018-07-20T06:44:18.161Z,90.24
2018-07-20T06:45:18.146Z,90.24
2018-07-20T06:46:18.132Z,90.34
2018-07-20T06:47:18.122Z,89.28
2018-07-20T06:48:18.102Z,89.76
2018-07-20T06:49:18.087Z,89.57
2018-07-20T06:50:18.071Z,88.51
2018-07-20T06:51:18.056Z,88.55
2018-07-20T06:52:18.042Z,87.68
2018-07-20T06:53:18.026Z,88.12
2018-07-20T06:54:18.012Z,88.26
2018-07-20T06:55:17.996Z,89.23
2018-07-20T06:56:17.980Z,87.35
2018-07-20T06:57:17.968Z,88.02
2018-07-20T06:58:17.953Z,88.12
2018-07-20T06:59:17.936Z,87.88
2018-07-20T07:00:19.422Z,88.45
2018-07-20T07:01:17.906Z,88.26
2018-07-20T07:02:17.893Z,87.78
2018-07-20T07:03:17.876Z,87.30
2018-07-20T07:04:17.862Z,86.72
2018-07-20T07:05:17.847Z,86.24
2018-07-20T07:06:19.337Z,86.82
2018-07-20T07:07:17.818Z,87.30
2018-07-20T07:08:17.801Z,86.76
2018-07-20T07:09:17.810Z,87.63
2018-07-20T07:10:17.777Z,87.63
2018-07-20T07:11:17.757Z,88.21
2018-07-20T07:12:17.743Z,88.31
2018-07-20T07:13:17.729Z,86.86
2018-07-20T07:14:17.714Z,86.86
2018-07-20T07:15:17.763Z,86.66
2018-07-20T07:16:17.683Z,85.89
2018-07-20T07:17:17.669Z,86.47
2018-07-20T07:18:17.653Z,86.18
2018-07-20T07:19:17.641Z,86.57
2018-07-20T07:20:17.625Z,85.60
2018-07-20T07:21:17.614Z,85.99
2018-07-20T07:22:17.648Z,86.86
2018-07-20T07:23:18.332Z,88.15
2018-07-20T07:24:17.566Z,86.42
2018-07-20T07:25:17.552Z,86.80
2018-07-20T07:26:17.537Z,88.35
2018-07-20T07:27:17.521Z,86.94
2018-07-20T07:28:17.507Z,84.78
2018-07-20T07:29:17.532Z,84.20
2018-07-20T07:30:17.479Z,84.88
2018-07-20T07:31:17.465Z,85.69
2018-07-20T07:32:17.450Z,84.33
2018-07-20T07:33:17.435Z,82.98
2018-07-20T07:34:22.676Z,84.05
2018-07-20T07:35:17.406Z,84.24
2018-07-20T07:36:17.395Z,84.63
2018-07-20T07:37:17.376Z,84.53
2018-07-20T07:38:17.362Z,83.80
2018-07-20T07:39:17.348Z,82.40
2018-07-20T07:40:18.085Z,82.79
2018-07-20T07:41:17.321Z,83.37
2018-07-20T07:42:17.348Z,83.18
2018-07-20T07:43:17.293Z,81.34
2018-07-20T07:44:17.283Z,80.95
2018-07-20T07:45:17.264Z,81.73
2018-07-20T07:46:17.250Z,81.73
2018-07-20T07:47:17.235Z,82.79
2018-07-20T07:48:17.226Z,82.73
2018-07-20T07:49:17.257Z,82.45
2018-07-20T07:50:17.191Z,83.03
2018-07-20T07:51:17.179Z,84.28
2018-07-20T07:52:17.164Z,84.19
2018-07-20T07:53:17.148Z,83.89
2018-07-20T07:54:17.134Z,83.41
2018-07-20T07:55:17.120Z,82.64
2018-07-20T07:56:17.107Z,85.35
2018-07-20T07:57:17.092Z,83.61
2018-07-20T07:58:17.079Z,83.16
2018-07-20T07:59:17.068Z,83.61
2018-07-20T08:00:17.049Z,84.13
2018-07-20T08:01:17.785Z,83.94
2018-07-20T08:02:17.021Z,84.13
2018-07-20T08:03:17.018Z,84.61
2018-07-20T08:04:16.994Z,84.13
2018-07-20T08:05:16.980Z,83.06
2018-07-20T08:06:16.967Z,83.12
2018-07-20T08:07:16.951Z,83.16
2018-07-20T08:08:16.936Z,84.09
2018-07-20T08:09:16.923Z,83.84
2018-07-20T08:10:16.919Z,82.78
2018-07-20T08:11:16.895Z,81.37
2018-07-20T08:12:16.883Z,81.04
2018-07-20T08:13:16.868Z,81.75
2018-07-20T08:14:16.858Z,81.85
2018-07-20T08:15:16.842Z,80.98
2018-07-20T08:16:16.826Z,80.98
2018-07-20T08:17:16.812Z,81.17
2018-07-20T08:18:16.798Z,80.40
2018-07-20T08:19:16.786Z,81.27
2018-07-20T08:20:16.770Z,81.56
2018-07-20T08:21:16.756Z,81.46
2018-07-20T08:22:17.494Z,83.11
2018-07-20T08:23:16.733Z,83.25
2018-07-20T08:24:16.715Z,81.40
2018-07-20T08:25:16.702Z,81.89
2018-07-20T08:26:16.689Z,81.02
2018-07-20T08:27:16.676Z,80.96
2018-07-20T08:28:16.661Z,79.90
2018-07-20T08:29:16.648Z,79.22
2018-07-20T08:30:16.636Z,81.15
2018-07-20T08:31:16.622Z,82.12
2018-07-20T08:32:16.610Z,81.05
2018-07-20T08:33:17.347Z,81.83
2018-07-20T08:34:16.581Z,81.54
2018-07-20T08:35:16.569Z,80.28
2018-07-20T08:36:16.555Z,78.09
2018-07-20T08:37:16.540Z,78.05
2018-07-20T08:38:16.526Z,79.22
2018-07-20T08:39:16.514Z,78.59
2018-07-20T08:40:16.499Z,78.79
2018-07-20T08:41:16.618Z,79.99
2018-07-20T08:42:16.472Z,78.83
2018-07-20T08:43:16.458Z,78.34
2018-07-20T08:44:16.447Z,78.05
2018-07-20T08:45:16.442Z,78.05
2018-07-20T08:46:16.419Z,78.48
2018-07-20T08:47:16.405Z,78.09
2018-07-20T08:48:16.391Z,76.35
2018-07-20T08:49:16.381Z,76.35
2018-07-20T08:50:16.365Z,76.35
2018-07-20T08:51:16.351Z,76.15
2018-07-20T08:52:16.339Z,76.25
2018-07-20T08:53:16.325Z,75.05
2018-07-20T08:54:16.313Z,75.92
2018-07-20T08:55:16.301Z,76.51
2018-07-20T08:56:16.286Z,76.74
2018-07-20T08:57:16.270Z,78.19
2018-07-20T08:58:16.298Z,77.36
2018-07-20T08:59:16.245Z,74.41
2018-07-20T09:00:16.236Z,74.02
2018-07-20T09:01:16.217Z,73.58
2018-07-20T09:02:16.207Z,75.32
2018-07-20T09:03:16.192Z,75.23
2018-07-20T09:04:16.179Z,73.58
2018-07-20T09:05:16.915Z,73.58
2018-07-20T09:06:16.153Z,72.51
2018-07-20T09:07:16.139Z,73.86
2018-07-20T09:08:16.125Z,73.19
2018-07-20T09:09:16.112Z,72.51
2018-07-20T09:10:16.100Z,72.18
2018-07-20T09:11:16.086Z,72.86
2018-07-20T09:12:16.074Z,72.38
2018-07-20T09:13:16.060Z,72.24
2018-07-20T09:14:16.048Z,72.86
2018-07-20T09:15:16.035Z,73.64
2018-07-20T09:16:18.273Z,75.77
2018-07-20T09:17:16.007Z,74.16
2018-07-20T09:18:15.994Z,75.51
2018-07-20T09:19:15.981Z,72.61
2018-07-20T09:20:15.970Z,72.99
2018-07-20T09:21:15.957Z,71.41
2018-07-20T09:22:16.693Z,72.22
2018-07-20T09:23:15.929Z,72.99
2018-07-20T09:24:15.914Z,74.26
2018-07-20T09:25:15.902Z,75.32
2018-07-20T09:26:15.893Z,74.68
2018-07-20T09:27:15.877Z,74.10
2018-07-20T09:28:15.874Z,73.42
2018-07-20T09:29:15.851Z,72.25
2018-07-20T09:30:15.838Z,71.77
2018-07-20T09:31:15.828Z,74.68
2018-07-20T09:32:15.811Z,74.81
2018-07-20T09:33:17.299Z,76.95
2018-07-20T09:34:15.784Z,75.40
2018-07-20T09:35:15.771Z,74.33
2018-07-20T09:36:15.759Z,72.91
2018-07-20T09:37:15.745Z,74.04
2018-07-20T09:38:15.734Z,71.70
2018-07-20T09:39:16.471Z,71.90
2018-07-20T09:40:15.708Z,71.32
2018-07-20T09:41:15.694Z,72.09
2018-07-20T09:42:15.683Z,71.80
2018-07-20T09:43:15.670Z,71.77
2018-07-20T09:44:15.671Z,73.32
2018-07-20T09:45:15.645Z,74.52
2018-07-20T09:46:15.632Z,76.07
2018-07-20T09:47:15.620Z,76.37
2018-07-20T09:48:15.606Z,75.40
2018-07-20T09:49:15.593Z,74.85
2018-07-20T09:50:16.332Z,75.72
2018-07-20T09:51:15.570Z,72.91
2018-07-20T09:52:15.556Z,74.27
2018-07-20T09:53:15.545Z,74.75
2018-07-20T09:54:15.532Z,74.60
2018-07-20T09:55:15.520Z,73.14
2018-07-20T09:56:15.506Z,74.79
2018-07-20T09:57:15.494Z,74.05
2018-07-20T09:58:15.485Z,72.20
2018-07-20T09:59:15.471Z,70.42
2018-07-20T10:00:15.456Z,72.07
2018-07-20T10:01:16.195Z,71.20
2018-07-20T10:02:15.432Z,71.58
2018-07-20T10:03:15.421Z,75.47
2018-07-20T10:04:15.409Z,72.65
2018-07-20T10:05:15.397Z,71.39
2018-07-20T10:06:15.385Z,70.09
2018-07-20T10:07:15.377Z,69.80
2018-07-20T10:08:15.360Z,70.32
2018-07-20T10:09:15.348Z,71.88
2018-07-20T10:10:15.336Z,71.16
2018-07-20T10:11:15.323Z,72.85
2018-07-20T10:12:15.315Z,70.97
2018-07-20T10:13:15.298Z,73.39
2018-07-20T10:14:15.287Z,74.46
2018-07-20T10:15:15.274Z,71.16
2018-07-20T10:16:15.263Z,70.97
2018-07-20T10:17:15.252Z,70.77
2018-07-20T10:18:15.239Z,71.26
2018-07-20T10:19:15.227Z,71.55
2018-07-20T10:20:15.218Z,71.10
2018-07-20T10:21:15.202Z,73.04
2018-07-20T10:22:15.191Z,71.58
2018-07-20T10:23:15.178Z,71.58
2018-07-20T10:24:15.165Z,70.71
2018-07-20T10:25:15.153Z,70.36
2018-07-20T10:26:15.142Z,70.61
2018-07-20T10:27:15.134Z,71.33
2018-07-20T10:28:15.118Z,70.36
2018-07-20T10:29:15.107Z,69.38
2018-07-20T10:30:15.094Z,69.87
2018-07-20T10:31:15.082Z,70.78
2018-07-20T10:32:15.069Z,71.36
2018-07-20T10:33:15.058Z,70.45
2018-07-20T10:34:15.046Z,70.06
2018-07-20T10:35:15.037Z,72.14
2018-07-20T10:36:15.021Z,69.67
2018-07-20T10:37:15.010Z,69.87
2018-07-20T10:38:14.997Z,69.81
2018-07-20T10:39:14.985Z,67.83
2018-07-20T10:40:14.973Z,67.83
2018-07-20T10:41:14.961Z,68.90
2018-07-20T10:42:14.950Z,68.99
2018-07-20T10:43:14.987Z,68.12
2018-07-20T10:44:14.925Z,68.70
2018-07-20T10:45:14.915Z,68.02
2018-07-20T10:46:14.902Z,68.90
2018-07-20T10:47:14.891Z,68.93
2018-07-20T10:48:14.879Z,72.43
2018-07-20T10:49:14.868Z,69.22
2018-07-20T10:50:14.856Z,64.75
2018-07-20T10:51:14.843Z,66.17
2018-07-20T10:52:14.832Z,65.01
2018-07-20T10:53:14.820Z,66.02
2018-07-20T10:54:14.809Z,66.11
2018-07-20T10:55:14.796Z,66.69
2018-07-20T10:56:14.784Z,65.27
2018-07-20T10:57:14.772Z,64.69
2018-07-20T10:58:14.761Z,65.59
2018-07-20T10:59:14.764Z,65.59
2018-07-20T11:00:14.737Z,66.79
2018-07-20T11:01:14.733Z,63.35
2018-07-20T11:02:14.716Z,64.78
2018-07-20T11:03:14.706Z,64.32
2018-07-20T11:04:14.691Z,64.62
2018-07-20T11:05:14.679Z,65.01
2018-07-20T11:06:14.669Z,65.88
2018-07-20T11:07:14.662Z,65.88
2018-07-20T11:08:14.649Z,64.04
2018-07-20T11:09:14.635Z,64.23
2018-07-20T11:10:14.623Z,64.04
2018-07-20T11:11:14.611Z,63.75
2018-07-20T11:12:14.600Z,63.06
2018-07-20T11:13:14.593Z,63.35
2018-07-20T11:14:14.580Z,65.01
2018-07-20T11:15:14.566Z,63.97
2018-07-20T11:16:14.553Z,62.22
2018-07-20T11:17:14.542Z,63.68
2018-07-20T11:18:14.531Z,63.68
2018-07-20T11:19:14.521Z,63.09
2018-07-20T11:20:14.535Z,63.78
2018-07-20T11:21:14.498Z,62.67
2018-07-20T11:22:14.486Z,63.55
2018-07-20T11:23:14.475Z,63.26
2018-07-20T11:24:14.463Z,63.65
2018-07-20T11:25:14.453Z,64.72
2018-07-20T11:26:14.444Z,64.04
2018-07-20T11:27:14.430Z,64.32
2018-07-20T11:28:14.420Z,65.43
2018-07-20T11:29:14.458Z,66.99
2018-07-20T11:30:14.398Z,65.82
2018-07-20T11:31:14.385Z,64.94
2018-07-20T11:32:14.375Z,63.35
2018-07-20T11:33:14.363Z,64.52
2018-07-20T11:34:14.353Z,64.04
2018-07-20T11:35:14.342Z,65.01
2018-07-20T11:36:18.085Z,64.91
2018-07-20T11:37:14.320Z,65.20
2018-07-20T11:38:14.310Z,63.84
2018-07-20T11:39:14.298Z,64.81
2018-07-20T11:40:14.286Z,65.01
2018-07-20T11:41:14.276Z,64.72
2018-07-20T11:42:15.767Z,63.90
2018-07-20T11:43:14.255Z,64.49
2018-07-20T11:44:14.247Z,64.20
2018-07-20T11:45:14.232Z,65.17
2018-07-20T11:46:14.223Z,64.98
2018-07-20T11:47:14.212Z,65.56
2018-07-20T11:48:17.203Z,65.85
2018-07-20T11:49:14.190Z,66.14
2018-07-20T11:50:14.178Z,66.14
2018-07-20T11:51:14.172Z,64.98
2018-07-20T11:52:14.157Z,65.43
2018-07-20T11:53:14.147Z,66.14
2018-07-20T11:54:14.136Z,65.75
2018-07-20T11:55:14.125Z,66.05
2018-07-20T11:56:14.113Z,67.21
2018-07-20T11:57:14.102Z,66.05
2018-07-20T11:58:14.092Z,66.44
2018-07-20T11:59:14.080Z,66.34
2018-07-20T12:00:14.069Z,65.37
2018-07-20T12:01:14.074Z,66.14
2018-07-20T12:02:14.047Z,65.79
2018-07-20T12:03:14.036Z,65.88
2018-07-20T12:04:14.025Z,66.11
2018-07-20T12:05:14.017Z,66.93
2018-07-20T12:06:14.005Z,64.97
2018-07-20T12:07:13.993Z,65.66
2018-07-20T12:08:13.983Z,66.05
2018-07-20T12:09:13.971Z,69.56
2018-07-20T12:10:14.712Z,67.93
2018-07-20T12:11:13.951Z,64.13
2018-07-20T12:12:13.941Z,64.62
2018-07-20T12:13:13.931Z,64.62
2018-07-20T12:14:13.921Z,64.20
2018-07-20T12:15:13.911Z,65.01
2018-07-20T12:16:13.901Z,64.72
2018-07-20T12:17:13.889Z,63.74
2018-07-20T12:18:13.880Z,63.90
2018-07-20T12:19:13.871Z,63.61
2018-07-20T12:20:13.859Z,63.71
2018-07-20T12:21:13.851Z,64.13
2018-07-20T12:22:13.840Z,63.71
2018-07-20T12:23:13.831Z,64.29
2018-07-20T12:24:13.822Z,63.87
2018-07-20T12:25:13.809Z,63.45
2018-07-20T12:26:13.800Z,63.48
2018-07-20T12:27:13.791Z,64.17
2018-07-20T12:28:13.832Z,64.07
2018-07-20T12:29:13.774Z,64.07
2018-07-20T12:30:13.761Z,63.35
2018-07-20T12:31:13.753Z,63.94
2018-07-20T12:32:13.742Z,63.84
2018-07-20T12:33:13.732Z,64.42
2018-07-20T12:34:13.722Z,63.97
2018-07-20T12:35:13.711Z,64.04
2018-07-20T12:36:13.702Z,64.62
2018-07-20T12:37:13.742Z,64.23
2018-07-20T12:38:13.681Z,64.42
2018-07-20T12:39:13.672Z,64.13
2018-07-20T12:40:13.660Z,64.69
2018-07-20T12:41:13.669Z,64.49
2018-07-20T12:42:13.641Z,65.40
2018-07-20T12:43:13.631Z,65.30
2018-07-20T12:44:13.621Z,65.88
2018-07-20T12:45:13.612Z,65.37
2018-07-20T12:46:13.600Z,65.95
2018-07-20T12:47:13.592Z,66.63
2018-07-20T12:48:13.581Z,66.14
2018-07-20T12:49:13.569Z,66.93
2018-07-20T12:50:13.682Z,66.44
2018-07-20T12:51:13.549Z,66.79
2018-07-20T12:52:13.538Z,67.90